aviador You're here:

KHAF Decoded Metar

HALF MOON BAY in CA, USA
Report Time2018-07-22 16:15:00
UTC Time2018-07-22 16:21:55
Flight Rules mvfr MVFR
Wind250° at 04 kt
W.Decomp.*RWY 30: 1.7 kt HW 3.6 kt LCW
W.Rank250° ranks 26
Current wind is below 250° avg. (5.1)
Visibility9999 m
Phenomena:N/A
Clouds:Scattered 006 Hf
Broken 013 Hf
Expected CloudBase > 400 ft AGL from Temp-Dew spread
Ceiling1,300 ft
Temp15°C (ISA 0)
Dew Point14°C (94% RH)
AAT14.8°C
QNH1020 hPa
Density Alt59 ft
Elevation66 ft
Report Wrong Elevation
Raw Report
KHAF 221615Z AUTO 25004KT 10SM SCT006 BKN013 15/14 A3011 RMK
AO2=

Extra information for KHAF:More info

Metar Taf Metar & Taf Last 4 Metars F.Rules Stats Wind Profile Meteogram Temp Stats Airport Information Weather charts Add Link Nearby VenuesMetar ALERT Operation Metar Decoded Social comments

AIRNAV info for KHAF